Gordon Heights, New York
Current Conditions -  °F | °C
As of 2:56 PM on Sunday 23 Nov 2014 (Local Time) from KHWV Reporting Station
Clear Clear  
Wind Chill: 11°   Ceiling: Unl
Heat Index: 11°   Visibility: 10mi
Dew Point:   Wind: 7mph
Humidity: 52%   Direction: 200°SSW
Pressure: 30.16"   Gusts: NA
Location:  40.8228°N, 72.9822°W
Report Text: KHWV 231956Z AUTO 20006KT 10SM CLR 11/01 A3016 RMK AO2 SLP212 T01060011 TSNO
Loading
Personal Weather Stations






























Interactive Weather Map New forecast layout! Learn more

10-Day Weather Forecast

Advertisements
Track Severe Weather on mobile